sensor_id;sensor_type;location;lat;lon;timestamp;P1;durP1;ratioP1;P2;durP2;ratioP2
41683;SDS011;27369;52.030;4.586;2022-11-20T00:00:04;23.58;;;13.30;;
41683;SDS011;27369;52.030;4.586;2022-11-20T00:02:30;20.98;;;12.35;;
41683;SDS011;27369;52.030;4.586;2022-11-20T00:04:55;19.65;;;12.63;;
41683;SDS011;27369;52.030;4.586;2022-11-20T00:07:21;22.27;;;13.90;;
41683;SDS011;27369;52.030;4.586;2022-11-20T00:09:46;22.95;;;12.90;;
41683;SDS011;27369;52.030;4.586;2022-11-20T00:12:12;30.67;;;14.50;;
41683;SDS011;27369;52.030;4.586;2022-11-20T00:14:37;26.13;;;13.30;;
41683;SDS011;27369;52.030;4.586;2022-11-20T00:17:02;28.05;;;14.45;;
41683;SDS011;27369;52.030;4.586;2022-11-20T00:19:28;22.08;;;12.15;;
41683;SDS011;27369;52.030;4.586;2022-11-20T00:21:53;21.10;;;12.68;;
41683;SDS011;27369;52.030;4.586;2022-11-20T00:24:20;21.10;;;12.25;;
41683;SDS011;27369;52.030;4.586;2022-11-20T00:26:45;20.48;;;11.60;;
41683;SDS011;27369;52.030;4.586;2022-11-20T00:29:11;17.65;;;11.10;;
41683;SDS011;27369;52.030;4.586;2022-11-20T00:31:36;19.38;;;10.00;;
41683;SDS011;27369;52.030;4.586;2022-11-20T00:34:03;21.83;;;12.77;;
41683;SDS011;27369;52.030;4.586;2022-11-20T00:38:57;30.23;;;13.98;;
41683;SDS011;27369;52.030;4.586;2022-11-20T00:41:23;27.55;;;13.05;;
41683;SDS011;27369;52.030;4.586;2022-11-20T00:43:50;28.05;;;13.75;;
41683;SDS011;27369;52.030;4.586;2022-11-20T00:46:18;29.20;;;13.02;;
41683;SDS011;27369;52.030;4.586;2022-11-20T00:48:46;27.25;;;13.65;;
41683;SDS011;27369;52.030;4.586;2022-11-20T00:51:12;32.70;;;15.80;;
41683;SDS011;27369;52.030;4.586;2022-11-20T00:53:39;34.17;;;16.38;;
41683;SDS011;27369;52.030;4.586;2022-11-20T00:56:06;31.95;;;15.30;;
41683;SDS011;27369;52.030;4.586;2022-11-20T00:58:35;32.88;;;16.80;;
41683;SDS011;27369;52.030;4.586;2022-11-20T01:03:32;33.42;;;16.88;;
41683;SDS011;27369;52.030;4.586;2022-11-20T01:06:04;27.33;;;16.50;;
41683;SDS011;27369;52.030;4.586;2022-11-20T01:08:32;29.38;;;15.70;;
41683;SDS011;27369;52.030;4.586;2022-11-20T01:11:00;34.38;;;17.45;;
41683;SDS011;27369;52.030;4.586;2022-11-20T01:13:36;27.13;;;16.45;;
41683;SDS011;27369;52.030;4.586;2022-11-20T01:16:12;21.67;;;13.82;;
41683;SDS011;27369;52.030;4.586;2022-11-20T01:18:43;22.60;;;13.30;;
41683;SDS011;27369;52.030;4.586;2022-11-20T01:21:11;18.45;;;11.95;;
41683;SDS011;27369;52.030;4.586;2022-11-20T01:23:44;17.83;;;11.13;;
41683;SDS011;27369;52.030;4.586;2022-11-20T01:26:11;23.80;;;12.65;;
41683;SDS011;27369;52.030;4.586;2022-11-20T01:28:39;20.67;;;11.65;;
41683;SDS011;27369;52.030;4.586;2022-11-20T01:33:38;17.73;;;12.07;;
41683;SDS011;27369;52.030;4.586;2022-11-20T01:36:05;21.02;;;12.23;;
41683;SDS011;27369;52.030;4.586;2022-11-20T01:38:31;23.33;;;12.35;;
41683;SDS011;27369;52.030;4.586;2022-11-20T01:40:56;19.40;;;12.13;;
41683;SDS011;27369;52.030;4.586;2022-11-20T01:43:22;19.30;;;11.85;;
41683;SDS011;27369;52.030;4.586;2022-11-20T01:48:23;19.55;;;11.35;;
41683;SDS011;27369;52.030;4.586;2022-11-20T01:50:52;18.63;;;10.93;;
41683;SDS011;27369;52.030;4.586;2022-11-20T01:53:19;17.13;;;11.02;;
41683;SDS011;27369;52.030;4.586;2022-11-20T01:55:51;19.10;;;11.38;;
41683;SDS011;27369;52.030;4.586;2022-11-20T01:58:20;18.95;;;10.82;;
41683;SDS011;27369;52.030;4.586;2022-11-20T02:00:49;18.40;;;11.40;;
41683;SDS011;27369;52.030;4.586;2022-11-20T02:03:15;22.02;;;12.15;;
41683;SDS011;27369;52.030;4.586;2022-11-20T02:08:11;18.67;;;11.85;;
41683;SDS011;27369;52.030;4.586;2022-11-20T02:10:37;17.77;;;11.52;;
41683;SDS011;27369;52.030;4.586;2022-11-20T02:13:03;18.48;;;11.25;;
41683;SDS011;27369;52.030;4.586;2022-11-20T02:15:47;17.23;;;11.07;;
41683;SDS011;27369;52.030;4.586;2022-11-20T02:20:41;16.38;;;10.43;;
41683;SDS011;27369;52.030;4.586;2022-11-20T02:23:11;18.17;;;11.10;;
41683;SDS011;27369;52.030;4.586;2022-11-20T02:25:41;19.38;;;11.43;;
41683;SDS011;27369;52.030;4.586;2022-11-20T02:28:10;20.85;;;12.55;;
41683;SDS011;27369;52.030;4.586;2022-11-20T02:30:36;18.90;;;11.40;;
41683;SDS011;27369;52.030;4.586;2022-11-20T02:33:01;21.30;;;12.27;;
41683;SDS011;27369;52.030;4.586;2022-11-20T02:37:56;21.37;;;12.60;;
41683;SDS011;27369;52.030;4.586;2022-11-20T02:40:24;20.10;;;12.00;;
41683;SDS011;27369;52.030;4.586;2022-11-20T02:42:53;19.77;;;12.02;;
41683;SDS011;27369;52.030;4.586;2022-11-20T02:45:20;20.33;;;12.02;;
41683;SDS011;27369;52.030;4.586;2022-11-20T02:47:45;21.33;;;12.43;;
41683;SDS011;27369;52.030;4.586;2022-11-20T02:50:11;19.25;;;11.35;;
41683;SDS011;27369;52.030;4.586;2022-11-20T02:52:36;22.55;;;13.35;;
41683;SDS011;27369;52.030;4.586;2022-11-20T02:55:02;16.77;;;10.88;;
41683;SDS011;27369;52.030;4.586;2022-11-20T02:57:28;16.95;;;11.00;;
41683;SDS011;27369;52.030;4.586;2022-11-20T02:59:53;18.38;;;11.07;;
41683;SDS011;27369;52.030;4.586;2022-11-20T03:02:19;19.90;;;12.07;;
41683;SDS011;27369;52.030;4.586;2022-11-20T03:04:44;23.20;;;12.90;;
41683;SDS011;27369;52.030;4.586;2022-11-20T03:07:09;20.65;;;11.63;;
41683;SDS011;27369;52.030;4.586;2022-11-20T03:09:35;21.42;;;11.90;;
41683;SDS011;27369;52.030;4.586;2022-11-20T03:12:00;22.63;;;12.85;;
41683;SDS011;27369;52.030;4.586;2022-11-20T03:14:26;17.63;;;10.95;;
41683;SDS011;27369;52.030;4.586;2022-11-20T03:16:51;20.17;;;11.95;;
41683;SDS011;27369;52.030;4.586;2022-11-20T03:19:17;24.35;;;12.27;;
41683;SDS011;27369;52.030;4.586;2022-11-20T03:21:42;24.17;;;12.00;;
41683;SDS011;27369;52.030;4.586;2022-11-20T03:24:08;19.50;;;11.10;;
41683;SDS011;27369;52.030;4.586;2022-11-20T03:26:33;20.10;;;12.07;;
41683;SDS011;27369;52.030;4.586;2022-11-20T03:29:00;18.45;;;12.10;;
41683;SDS011;27369;52.030;4.586;2022-11-20T03:31:28;18.75;;;11.30;;
41683;SDS011;27369;52.030;4.586;2022-11-20T03:33:58;15.93;;;10.70;;
41683;SDS011;27369;52.030;4.586;2022-11-20T03:36:25;22.75;;;13.50;;
41683;SDS011;27369;52.030;4.586;2022-11-20T03:41:18;17.05;;;10.68;;
41683;SDS011;27369;52.030;4.586;2022-11-20T03:43:52;21.10;;;11.82;;
41683;SDS011;27369;52.030;4.586;2022-11-20T03:46:19;16.60;;;10.80;;
41683;SDS011;27369;52.030;4.586;2022-11-20T03:48:46;19.23;;;11.35;;
41683;SDS011;27369;52.030;4.586;2022-11-20T03:51:13;21.40;;;11.55;;
41683;SDS011;27369;52.030;4.586;2022-11-20T03:53:39;20.58;;;11.82;;
41683;SDS011;27369;52.030;4.586;2022-11-20T03:56:06;20.05;;;11.90;;
41683;SDS011;27369;52.030;4.586;2022-11-20T03:58:33;17.20;;;11.00;;
41683;SDS011;27369;52.030;4.586;2022-11-20T04:01:04;19.95;;;11.93;;
41683;SDS011;27369;52.030;4.586;2022-11-20T04:03:33;20.50;;;12.25;;
41683;SDS011;27369;52.030;4.586;2022-11-20T04:06:07;20.80;;;11.73;;
41683;SDS011;27369;52.030;4.586;2022-11-20T04:08:32;19.73;;;12.00;;
41683;SDS011;27369;52.030;4.586;2022-11-20T04:11:40;18.65;;;11.38;;
41683;SDS011;27369;52.030;4.586;2022-11-20T04:13:49;19.25;;;10.98;;
41683;SDS011;27369;52.030;4.586;2022-11-20T04:16:17;18.63;;;10.48;;
41683;SDS011;27369;52.030;4.586;2022-11-20T04:18:43;19.45;;;10.70;;
41683;SDS011;27369;52.030;4.586;2022-11-20T04:21:08;18.02;;;10.82;;
41683;SDS011;27369;52.030;4.586;2022-11-20T04:23:35;19.48;;;11.13;;
41683;SDS011;27369;52.030;4.586;2022-11-20T04:26:01;20.40;;;11.93;;
41683;SDS011;27369;52.030;4.586;2022-11-20T04:28:30;18.83;;;11.32;;
41683;SDS011;27369;52.030;4.586;2022-11-20T04:31:06;22.13;;;12.02;;
41683;SDS011;27369;52.030;4.586;2022-11-20T04:33:36;18.42;;;11.00;;
41683;SDS011;27369;52.030;4.586;2022-11-20T04:38:31;17.25;;;10.55;;
41683;SDS011;27369;52.030;4.586;2022-11-20T04:41:01;17.33;;;11.10;;
41683;SDS011;27369;52.030;4.586;2022-11-20T04:43:28;20.42;;;12.50;;
41683;SDS011;27369;52.030;4.586;2022-11-20T04:45:54;18.75;;;10.48;;
41683;SDS011;27369;52.030;4.586;2022-11-20T04:48:21;18.17;;;10.82;;
41683;SDS011;27369;52.030;4.586;2022-11-20T04:50:47;20.63;;;11.73;;
41683;SDS011;27369;52.030;4.586;2022-11-20T04:53:12;21.13;;;12.45;;
41683;SDS011;27369;52.030;4.586;2022-11-20T04:55:38;18.45;;;12.35;;
41683;SDS011;27369;52.030;4.586;2022-11-20T04:58:03;20.60;;;12.05;;
41683;SDS011;27369;52.030;4.586;2022-11-20T05:00:29;21.08;;;11.85;;
41683;SDS011;27369;52.030;4.586;2022-11-20T05:02:54;17.77;;;11.43;;
41683;SDS011;27369;52.030;4.586;2022-11-20T05:05:19;18.00;;;10.45;;
41683;SDS011;27369;52.030;4.586;2022-11-20T05:07:45;20.45;;;11.77;;
41683;SDS011;27369;52.030;4.586;2022-11-20T05:10:10;22.80;;;11.93;;
41683;SDS011;27369;52.030;4.586;2022-11-20T05:12:36;20.42;;;12.10;;
41683;SDS011;27369;52.030;4.586;2022-11-20T05:15:01;21.10;;;11.95;;
41683;SDS011;27369;52.030;4.586;2022-11-20T05:17:26;20.27;;;12.65;;
41683;SDS011;27369;52.030;4.586;2022-11-20T05:19:52;21.58;;;12.80;;
41683;SDS011;27369;52.030;4.586;2022-11-20T05:22:17;22.42;;;12.05;;
41683;SDS011;27369;52.030;4.586;2022-11-20T05:24:43;23.85;;;12.57;;
41683;SDS011;27369;52.030;4.586;2022-11-20T05:27:08;20.20;;;11.80;;
41683;SDS011;27369;52.030;4.586;2022-11-20T05:29:34;21.17;;;12.48;;
41683;SDS011;27369;52.030;4.586;2022-11-20T05:31:59;18.95;;;11.73;;
41683;SDS011;27369;52.030;4.586;2022-11-20T05:34:24;20.00;;;12.27;;
41683;SDS011;27369;52.030;4.586;2022-11-20T05:36:50;19.58;;;12.10;;
41683;SDS011;27369;52.030;4.586;2022-11-20T05:39:15;21.00;;;12.02;;
41683;SDS011;27369;52.030;4.586;2022-11-20T05:41:41;22.85;;;12.82;;
41683;SDS011;27369;52.030;4.586;2022-11-20T05:44:06;19.63;;;12.50;;
41683;SDS011;27369;52.030;4.586;2022-11-20T05:46:32;20.23;;;11.70;;
41683;SDS011;27369;52.030;4.586;2022-11-20T05:48:57;17.25;;;10.55;;
41683;SDS011;27369;52.030;4.586;2022-11-20T05:51:24;22.15;;;11.88;;
41683;SDS011;27369;52.030;4.586;2022-11-20T05:53:50;19.77;;;12.02;;
41683;SDS011;27369;52.030;4.586;2022-11-20T05:56:16;17.88;;;11.18;;
41683;SDS011;27369;52.030;4.586;2022-11-20T05:58:43;21.48;;;12.27;;
41683;SDS011;27369;52.030;4.586;2022-11-20T06:03:36;20.30;;;11.57;;
41683;SDS011;27369;52.030;4.586;2022-11-20T06:06:03;17.90;;;10.60;;
41683;SDS011;27369;52.030;4.586;2022-11-20T06:08:30;22.30;;;11.93;;
41683;SDS011;27369;52.030;4.586;2022-11-20T06:10:56;20.45;;;11.43;;
41683;SDS011;27369;52.030;4.586;2022-11-20T06:13:21;21.10;;;12.32;;
41683;SDS011;27369;52.030;4.586;2022-11-20T06:15:50;19.38;;;11.68;;
41683;SDS011;27369;52.030;4.586;2022-11-20T06:18:17;20.38;;;12.05;;
41683;SDS011;27369;52.030;4.586;2022-11-20T06:20:43;18.58;;;11.65;;
41683;SDS011;27369;52.030;4.586;2022-11-20T06:23:09;24.13;;;13.60;;
41683;SDS011;27369;52.030;4.586;2022-11-20T06:25:38;19.63;;;12.23;;
41683;SDS011;27369;52.030;4.586;2022-11-20T06:28:04;20.42;;;11.90;;
41683;SDS011;27369;52.030;4.586;2022-11-20T06:30:30;20.98;;;13.32;;
41683;SDS011;27369;52.030;4.586;2022-11-20T06:32:55;23.60;;;13.35;;
41683;SDS011;27369;52.030;4.586;2022-11-20T06:35:20;19.33;;;12.05;;
41683;SDS011;27369;52.030;4.586;2022-11-20T06:37:46;23.15;;;13.52;;
41683;SDS011;27369;52.030;4.586;2022-11-20T06:40:11;23.85;;;13.52;;
41683;SDS011;27369;52.030;4.586;2022-11-20T06:42:37;21.98;;;13.23;;
41683;SDS011;27369;52.030;4.586;2022-11-20T06:45:03;24.23;;;13.07;;
41683;SDS011;27369;52.030;4.586;2022-11-20T06:47:28;20.33;;;12.82;;
41683;SDS011;27369;52.030;4.586;2022-11-20T06:49:54;22.42;;;13.63;;
41683;SDS011;27369;52.030;4.586;2022-11-20T06:52:19;21.38;;;11.25;;
41683;SDS011;27369;52.030;4.586;2022-11-20T06:54:44;25.08;;;14.23;;
41683;SDS011;27369;52.030;4.586;2022-11-20T06:57:10;20.08;;;11.40;;
41683;SDS011;27369;52.030;4.586;2022-11-20T06:59:35;19.65;;;11.77;;
41683;SDS011;27369;52.030;4.586;2022-11-20T07:02:00;20.42;;;12.80;;
41683;SDS011;27369;52.030;4.586;2022-11-20T07:04:26;23.25;;;12.90;;
41683;SDS011;27369;52.030;4.586;2022-11-20T07:06:51;22.35;;;13.50;;
41683;SDS011;27369;52.030;4.586;2022-11-20T07:09:16;19.80;;;12.88;;
41683;SDS011;27369;52.030;4.586;2022-11-20T07:11:42;22.08;;;12.52;;
41683;SDS011;27369;52.030;4.586;2022-11-20T07:14:07;21.60;;;12.52;;
41683;SDS011;27369;52.030;4.586;2022-11-20T07:16:32;20.08;;;12.75;;
41683;SDS011;27369;52.030;4.586;2022-11-20T07:18:58;22.50;;;13.95;;
41683;SDS011;27369;52.030;4.586;2022-11-20T07:21:23;25.00;;;12.65;;
41683;SDS011;27369;52.030;4.586;2022-11-20T07:23:49;20.23;;;13.05;;
41683;SDS011;27369;52.030;4.586;2022-11-20T07:26:14;21.88;;;13.48;;
41683;SDS011;27369;52.030;4.586;2022-11-20T07:28:40;21.52;;;13.93;;
41683;SDS011;27369;52.030;4.586;2022-11-20T07:31:05;22.60;;;13.57;;
41683;SDS011;27369;52.030;4.586;2022-11-20T07:33:32;26.48;;;15.35;;
41683;SDS011;27369;52.030;4.586;2022-11-20T07:35:58;24.05;;;13.55;;
41683;SDS011;27369;52.030;4.586;2022-11-20T07:38:24;21.55;;;12.75;;
41683;SDS011;27369;52.030;4.586;2022-11-20T07:40:53;23.20;;;13.25;;
41683;SDS011;27369;52.030;4.586;2022-11-20T07:43:19;20.10;;;12.77;;
41683;SDS011;27369;52.030;4.586;2022-11-20T07:45:45;22.13;;;13.32;;
41683;SDS011;27369;52.030;4.586;2022-11-20T07:48:10;21.05;;;13.10;;
41683;SDS011;27369;52.030;4.586;2022-11-20T07:50:35;17.65;;;9.95;;
41683;SDS011;27369;52.030;4.586;2022-11-20T07:53:03;21.42;;;12.38;;
41683;SDS011;27369;52.030;4.586;2022-11-20T07:55:32;21.83;;;13.10;;
41683;SDS011;27369;52.030;4.586;2022-11-20T07:57:57;20.52;;;12.68;;
41683;SDS011;27369;52.030;4.586;2022-11-20T08:00:23;23.60;;;13.85;;
41683;SDS011;27369;52.030;4.586;2022-11-20T08:02:49;23.17;;;13.98;;
41683;SDS011;27369;52.030;4.586;2022-11-20T08:05:15;21.35;;;12.60;;
41683;SDS011;27369;52.030;4.586;2022-11-20T08:07:41;19.08;;;11.85;;
41683;SDS011;27369;52.030;4.586;2022-11-20T08:10:08;21.80;;;13.40;;
41683;SDS011;27369;52.030;4.586;2022-11-20T08:12:34;24.83;;;14.40;;
41683;SDS011;27369;52.030;4.586;2022-11-20T08:15:21;22.17;;;14.13;;
41683;SDS011;27369;52.030;4.586;2022-11-20T08:17:46;24.10;;;13.82;;
41683;SDS011;27369;52.030;4.586;2022-11-20T08:20:12;22.23;;;13.95;;
41683;SDS011;27369;52.030;4.586;2022-11-20T08:22:37;23.05;;;13.88;;
41683;SDS011;27369;52.030;4.586;2022-11-20T08:25:03;22.48;;;14.95;;
41683;SDS011;27369;52.030;4.586;2022-11-20T08:27:29;20.45;;;12.77;;
41683;SDS011;27369;52.030;4.586;2022-11-20T08:29:56;24.30;;;14.50;;
41683;SDS011;27369;52.030;4.586;2022-11-20T08:32:22;22.70;;;13.85;;
41683;SDS011;27369;52.030;4.586;2022-11-20T08:34:47;22.67;;;14.52;;
41683;SDS011;27369;52.030;4.586;2022-11-20T08:37:12;20.88;;;13.00;;
41683;SDS011;27369;52.030;4.586;2022-11-20T08:39:38;24.77;;;15.20;;
41683;SDS011;27369;52.030;4.586;2022-11-20T08:42:06;20.88;;;13.50;;
41683;SDS011;27369;52.030;4.586;2022-11-20T08:44:32;22.55;;;15.20;;
41683;SDS011;27369;52.030;4.586;2022-11-20T08:46:57;27.70;;;16.05;;
41683;SDS011;27369;52.030;4.586;2022-11-20T08:49:23;23.38;;;15.23;;
41683;SDS011;27369;52.030;4.586;2022-11-20T08:51:48;23.42;;;14.82;;
41683;SDS011;27369;52.030;4.586;2022-11-20T08:54:17;25.85;;;16.05;;
41683;SDS011;27369;52.030;4.586;2022-11-20T08:56:44;23.67;;;15.25;;
41683;SDS011;27369;52.030;4.586;2022-11-20T08:59:10;23.55;;;13.80;;
41683;SDS011;27369;52.030;4.586;2022-11-20T09:01:35;23.30;;;13.10;;
41683;SDS011;27369;52.030;4.586;2022-11-20T09:04:01;21.95;;;14.75;;
41683;SDS011;27369;52.030;4.586;2022-11-20T09:06:26;21.08;;;13.85;;
41683;SDS011;27369;52.030;4.586;2022-11-20T09:08:52;24.65;;;16.05;;
41683;SDS011;27369;52.030;4.586;2022-11-20T09:11:18;21.08;;;14.13;;
41683;SDS011;27369;52.030;4.586;2022-11-20T09:13:43;24.38;;;15.95;;
41683;SDS011;27369;52.030;4.586;2022-11-20T09:16:09;24.55;;;16.30;;
41683;SDS011;27369;52.030;4.586;2022-11-20T09:18:35;24.13;;;13.73;;
41683;SDS011;27369;52.030;4.586;2022-11-20T09:21:03;24.30;;;14.60;;
41683;SDS011;27369;52.030;4.586;2022-11-20T09:23:34;24.60;;;15.07;;
41683;SDS011;27369;52.030;4.586;2022-11-20T09:26:03;21.77;;;15.00;;
41683;SDS011;27369;52.030;4.586;2022-11-20T09:28:30;23.20;;;14.95;;
41683;SDS011;27369;52.030;4.586;2022-11-20T09:30:56;24.63;;;15.40;;
41683;SDS011;27369;52.030;4.586;2022-11-20T09:33:21;23.85;;;15.80;;
41683;SDS011;27369;52.030;4.586;2022-11-20T09:35:46;24.17;;;14.50;;
41683;SDS011;27369;52.030;4.586;2022-11-20T09:38:12;23.33;;;14.50;;
41683;SDS011;27369;52.030;4.586;2022-11-20T09:40:43;26.65;;;16.15;;
41683;SDS011;27369;52.030;4.586;2022-11-20T09:46:20;25.15;;;14.77;;
41683;SDS011;27369;52.030;4.586;2022-11-20T09:48:53;24.48;;;14.35;;
41683;SDS011;27369;52.030;4.586;2022-11-20T09:51:42;26.23;;;15.63;;
41683;SDS011;27369;52.030;4.586;2022-11-20T09:54:17;25.42;;;16.48;;
41683;SDS011;27369;52.030;4.586;2022-11-20T09:56:49;23.08;;;15.25;;
41683;SDS011;27369;52.030;4.586;2022-11-20T09:59:40;23.77;;;15.27;;
41683;SDS011;27369;52.030;4.586;2022-11-20T10:02:12;25.13;;;15.63;;
41683;SDS011;27369;52.030;4.586;2022-11-20T10:04:43;22.02;;;15.63;;
41683;SDS011;27369;52.030;4.586;2022-11-20T10:07:17;25.95;;;14.38;;
41683;SDS011;27369;52.030;4.586;2022-11-20T10:09:52;26.95;;;16.77;;
41683;SDS011;27369;52.030;4.586;2022-11-20T10:12:24;21.92;;;13.75;;
41683;SDS011;27369;52.030;4.586;2022-11-20T10:15:21;27.55;;;18.55;;
41683;SDS011;27369;52.030;4.586;2022-11-20T10:18:02;24.13;;;16.85;;
41683;SDS011;27369;52.030;4.586;2022-11-20T10:26:06;29.63;;;17.33;;
41683;SDS011;27369;52.030;4.586;2022-11-20T10:29:11;25.35;;;17.23;;
41683;SDS011;27369;52.030;4.586;2022-11-20T10:31:40;30.27;;;17.83;;
41683;SDS011;27369;52.030;4.586;2022-11-20T10:36:50;25.55;;;17.60;;
41683;SDS011;27369;52.030;4.586;2022-11-20T10:39:33;22.73;;;13.82;;
41683;SDS011;27369;52.030;4.586;2022-11-20T10:42:04;28.92;;;19.17;;
41683;SDS011;27369;52.030;4.586;2022-11-20T10:44:36;30.08;;;18.80;;
41683;SDS011;27369;52.030;4.586;2022-11-20T10:47:22;27.60;;;18.05;;
41683;SDS011;27369;52.030;4.586;2022-11-20T10:49:51;27.52;;;17.35;;
41683;SDS011;27369;52.030;4.586;2022-11-20T11:00:20;30.02;;;18.52;;
41683;SDS011;27369;52.030;4.586;2022-11-20T11:02:47;26.92;;;18.40;;
41683;SDS011;27369;52.030;4.586;2022-11-20T11:07:45;27.75;;;17.42;;
41683;SDS011;27369;52.030;4.586;2022-11-20T11:10:18;28.65;;;17.92;;
41683;SDS011;27369;52.030;4.586;2022-11-20T11:12:46;27.27;;;17.25;;
41683;SDS011;27369;52.030;4.586;2022-11-20T11:15:24;34.13;;;21.20;;
41683;SDS011;27369;52.030;4.586;2022-11-20T11:17:50;30.38;;;15.93;;
41683;SDS011;27369;52.030;4.586;2022-11-20T11:20:20;33.53;;;18.67;;
41683;SDS011;27369;52.030;4.586;2022-11-20T11:25:34;31.88;;;18.92;;
41683;SDS011;27369;52.030;4.586;2022-11-20T11:30:28;31.42;;;20.65;;
41683;SDS011;27369;52.030;4.586;2022-11-20T11:33:02;33.42;;;21.05;;
41683;SDS011;27369;52.030;4.586;2022-11-20T11:35:30;28.15;;;18.20;;
41683;SDS011;27369;52.030;4.586;2022-11-20T11:41:02;34.78;;;18.48;;
41683;SDS011;27369;52.030;4.586;2022-11-20T11:43:30;32.97;;;20.10;;
41683;SDS011;27369;52.030;4.586;2022-11-20T11:48:54;29.38;;;15.57;;
41683;SDS011;27369;52.030;4.586;2022-11-20T11:51:23;31.38;;;18.73;;
41683;SDS011;27369;52.030;4.586;2022-11-20T11:53:51;30.95;;;17.90;;
41683;SDS011;27369;52.030;4.586;2022-11-20T11:56:17;28.67;;;18.55;;
41683;SDS011;27369;52.030;4.586;2022-11-20T11:58:44;28.15;;;16.33;;
41683;SDS011;27369;52.030;4.586;2022-11-20T12:01:47;32.83;;;20.00;;
41683;SDS011;27369;52.030;4.586;2022-11-20T12:07:03;31.98;;;20.70;;
41683;SDS011;27369;52.030;4.586;2022-11-20T12:09:37;35.15;;;21.10;;
41683;SDS011;27369;52.030;4.586;2022-11-20T12:12:09;19.02;;;12.02;;
41683;SDS011;27369;52.030;4.586;2022-11-20T12:14:41;31.48;;;19.88;;
41683;SDS011;27369;52.030;4.586;2022-11-20T12:17:11;29.58;;;18.27;;
41683;SDS011;27369;52.030;4.586;2022-11-20T12:19:38;34.67;;;20.90;;
41683;SDS011;27369;52.030;4.586;2022-11-20T12:25:27;35.47;;;20.85;;
41683;SDS011;27369;52.030;4.586;2022-11-20T12:28:13;27.63;;;17.73;;
41683;SDS011;27369;52.030;4.586;2022-11-20T12:36:13;38.55;;;20.20;;
41683;SDS011;27369;52.030;4.586;2022-11-20T12:41:49;32.90;;;18.98;;
41683;SDS011;27369;52.030;4.586;2022-11-20T12:44:48;43.33;;;23.33;;
41683;SDS011;27369;52.030;4.586;2022-11-20T12:50:38;36.13;;;19.13;;
41683;SDS011;27369;52.030;4.586;2022-11-20T12:53:05;49.13;;;23.40;;
41683;SDS011;27369;52.030;4.586;2022-11-20T13:04:15;38.63;;;19.08;;
41683;SDS011;27369;52.030;4.586;2022-11-20T13:07:13;41.80;;;21.17;;
41683;SDS011;27369;52.030;4.586;2022-11-20T13:09:45;41.95;;;23.92;;
41683;SDS011;27369;52.030;4.586;2022-11-20T13:15:05;47.00;;;24.55;;
41683;SDS011;27369;52.030;4.586;2022-11-20T13:17:45;52.58;;;26.58;;
41683;SDS011;27369;52.030;4.586;2022-11-20T13:20:17;56.42;;;23.33;;
41683;SDS011;27369;52.030;4.586;2022-11-20T13:22:47;44.67;;;20.83;;
41683;SDS011;27369;52.030;4.586;2022-11-20T13:25:24;48.90;;;25.85;;
41683;SDS011;27369;52.030;4.586;2022-11-20T13:28:00;41.80;;;21.38;;
41683;SDS011;27369;52.030;4.586;2022-11-20T13:30:29;50.97;;;24.70;;
41683;SDS011;27369;52.030;4.586;2022-11-20T13:35:31;47.65;;;25.15;;
41683;SDS011;27369;52.030;4.586;2022-11-20T13:38:05;42.75;;;21.38;;
41683;SDS011;27369;52.030;4.586;2022-11-20T13:40:33;40.83;;;21.02;;
41683;SDS011;27369;52.030;4.586;2022-11-20T13:43:08;51.35;;;25.60;;
41683;SDS011;27369;52.030;4.586;2022-11-20T13:45:41;57.13;;;27.13;;
41683;SDS011;27369;52.030;4.586;2022-11-20T13:48:20;56.65;;;26.02;;
41683;SDS011;27369;52.030;4.586;2022-11-20T14:02:20;61.42;;;26.23;;
41683;SDS011;27369;52.030;4.586;2022-11-20T14:04:52;58.22;;;30.25;;
41683;SDS011;27369;52.030;4.586;2022-11-20T14:07:22;61.63;;;32.05;;
41683;SDS011;27369;52.030;4.586;2022-11-20T14:09:55;63.30;;;30.55;;
41683;SDS011;27369;52.030;4.586;2022-11-20T14:12:23;52.42;;;24.40;;
41683;SDS011;27369;52.030;4.586;2022-11-20T14:14:56;34.42;;;17.42;;
41683;SDS011;27369;52.030;4.586;2022-11-20T14:17:32;62.63;;;29.25;;
41683;SDS011;27369;52.030;4.586;2022-11-20T14:20:00;43.22;;;17.25;;
41683;SDS011;27369;52.030;4.586;2022-11-20T14:22:29;63.40;;;29.83;;
41683;SDS011;27369;52.030;4.586;2022-11-20T14:25:05;59.67;;;30.00;;
41683;SDS011;27369;52.030;4.586;2022-11-20T14:27:58;65.75;;;27.50;;
41683;SDS011;27369;52.030;4.586;2022-11-20T14:30:26;60.58;;;29.55;;
41683;SDS011;27369;52.030;4.586;2022-11-20T14:32:55;58.97;;;30.10;;
41683;SDS011;27369;52.030;4.586;2022-11-20T14:35:26;56.88;;;27.73;;
41683;SDS011;27369;52.030;4.586;2022-11-20T14:37:52;51.72;;;25.98;;
41683;SDS011;27369;52.030;4.586;2022-11-20T14:40:23;57.95;;;27.13;;
41683;SDS011;27369;52.030;4.586;2022-11-20T14:42:49;53.60;;;23.88;;
41683;SDS011;27369;52.030;4.586;2022-11-20T14:45:15;65.82;;;28.95;;
41683;SDS011;27369;52.030;4.586;2022-11-20T14:50:12;60.83;;;29.00;;
41683;SDS011;27369;52.030;4.586;2022-11-20T14:52:49;58.55;;;28.27;;
41683;SDS011;27369;52.030;4.586;2022-11-20T14:55:32;57.63;;;29.55;;
41683;SDS011;27369;52.030;4.586;2022-11-20T14:58:06;44.55;;;18.73;;
41683;SDS011;27369;52.030;4.586;2022-11-20T15:00:53;43.38;;;19.85;;
41683;SDS011;27369;52.030;4.586;2022-11-20T15:03:20;56.03;;;26.25;;
41683;SDS011;27369;52.030;4.586;2022-11-20T15:05:47;40.63;;;20.27;;
41683;SDS011;27369;52.030;4.586;2022-11-20T15:08:14;28.35;;;15.23;;
41683;SDS011;27369;52.030;4.586;2022-11-20T15:10:50;54.35;;;25.67;;
41683;SDS011;27369;52.030;4.586;2022-11-20T15:13:24;38.97;;;18.13;;
41683;SDS011;27369;52.030;4.586;2022-11-20T15:15:55;75.53;;;34.83;;
41683;SDS011;27369;52.030;4.586;2022-11-20T15:18:28;53.50;;;25.88;;
41683;SDS011;27369;52.030;4.586;2022-11-20T15:20:57;53.40;;;24.45;;
41683;SDS011;27369;52.030;4.586;2022-11-20T15:23:27;31.05;;;16.00;;
41683;SDS011;27369;52.030;4.586;2022-11-20T15:25:53;47.10;;;23.17;;
41683;SDS011;27369;52.030;4.586;2022-11-20T15:28:23;53.78;;;19.33;;
41683;SDS011;27369;52.030;4.586;2022-11-20T15:30:57;72.10;;;34.40;;
41683;SDS011;27369;52.030;4.586;2022-11-20T15:33:23;56.85;;;27.80;;
41683;SDS011;27369;52.030;4.586;2022-11-20T15:35:49;72.57;;;34.22;;
41683;SDS011;27369;52.030;4.586;2022-11-20T15:38:14;36.08;;;19.58;;
41683;SDS011;27369;52.030;4.586;2022-11-20T15:40:40;61.80;;;33.63;;
41683;SDS011;27369;52.030;4.586;2022-11-20T15:43:05;45.53;;;20.27;;
41683;SDS011;27369;52.030;4.586;2022-11-20T15:45:42;56.28;;;26.25;;
41683;SDS011;27369;52.030;4.586;2022-11-20T15:48:20;65.88;;;33.33;;
41683;SDS011;27369;52.030;4.586;2022-11-20T15:53:16;50.40;;;25.90;;
41683;SDS011;27369;52.030;4.586;2022-11-20T15:55:41;57.78;;;29.73;;
41683;SDS011;27369;52.030;4.586;2022-11-20T15:58:06;49.13;;;25.27;;
41683;SDS011;27369;52.030;4.586;2022-11-20T16:00:32;58.00;;;29.67;;
41683;SDS011;27369;52.030;4.586;2022-11-20T16:02:57;53.78;;;28.75;;
41683;SDS011;27369;52.030;4.586;2022-11-20T16:05:23;51.90;;;25.75;;
41683;SDS011;27369;52.030;4.586;2022-11-20T16:07:52;57.45;;;31.80;;
41683;SDS011;27369;52.030;4.586;2022-11-20T16:10:17;53.25;;;29.88;;
41683;SDS011;27369;52.030;4.586;2022-11-20T16:12:43;59.97;;;29.75;;
41683;SDS011;27369;52.030;4.586;2022-11-20T16:15:28;62.58;;;32.50;;